createdAt,value
2019-02-21T00:00:11.029Z,6.00
2019-02-21T00:01:17.593Z,5.90
2019-02-21T00:02:29.700Z,6.00
2019-02-21T00:03:33.783Z,5.90
2019-02-21T00:04:39.152Z,5.90
2019-02-21T00:05:44.649Z,5.90
2019-02-21T00:06:50.186Z,5.90
2019-02-21T00:07:56.132Z,5.90
2019-02-21T00:09:01.977Z,5.90
2019-02-21T00:10:07.770Z,5.90
2019-02-21T00:11:16.428Z,5.90
2019-02-21T00:12:25.247Z,5.90
2019-02-21T00:13:29.356Z,5.90
2019-02-21T00:14:40.005Z,5.90
2019-02-21T00:15:46.768Z,5.90
2019-02-21T00:16:52.682Z,5.80
2019-02-21T00:17:59.927Z,5.90
2019-02-21T00:19:04.272Z,5.80
2019-02-21T00:20:13.340Z,5.80
2019-02-21T00:21:20.678Z,5.80
2019-02-21T00:22:31.188Z,5.80
2019-02-21T00:23:35.273Z,5.80
2019-02-21T00:24:48.263Z,5.80
2019-02-21T00:26:00.465Z,5.80
2019-02-21T00:27:06.117Z,5.80
2019-02-21T00:28:10.340Z,5.80
2019-02-21T00:29:16.041Z,5.80
2019-02-21T00:30:34.938Z,5.80
2019-02-21T00:31:35.445Z,5.80
2019-02-21T00:32:40.328Z,5.80
2019-02-21T00:33:44.434Z,5.80
2019-02-21T00:34:51.344Z,5.80
2019-02-21T00:35:57.536Z,5.70
2019-02-21T00:37:02.555Z,5.70
2019-02-21T00:38:17.205Z,5.70
2019-02-21T00:39:25.513Z,5.70
2019-02-21T00:40:31.145Z,5.70
2019-02-21T00:41:35.795Z,5.70
2019-02-21T00:42:43.474Z,5.70
2019-02-21T00:43:48.881Z,5.70
2019-02-21T00:44:52.956Z,5.70
2019-02-21T00:46:02.129Z,5.70
2019-02-21T00:47:14.859Z,5.70
2019-02-21T00:48:23.646Z,5.70
2019-02-21T00:49:30.354Z,5.70
2019-02-21T00:50:38.249Z,5.70
2019-02-21T00:51:46.828Z,5.70
2019-02-21T00:52:52.681Z,5.70
2019-02-21T00:54:03.837Z,5.70
2019-02-21T00:55:16.021Z,5.70
2019-02-21T00:56:30.756Z,5.70
2019-02-21T00:57:34.963Z,5.70
2019-02-21T00:58:44.238Z,5.70
2019-02-21T00:59:52.130Z,5.60
2019-02-21T01:00:58.078Z,5.70
2019-02-21T01:02:02.807Z,5.70
2019-02-21T01:03:10.550Z,5.70
2019-02-21T01:04:23.577Z,5.70
2019-02-21T01:05:32.013Z,5.60
2019-02-21T01:06:37.210Z,5.60
2019-02-21T01:07:47.185Z,5.60
2019-02-21T01:08:53.597Z,5.60
2019-02-21T01:09:58.769Z,5.60
2019-02-21T01:11:04.549Z,5.60
2019-02-21T01:12:08.982Z,5.60
2019-02-21T01:13:13.669Z,5.60
2019-02-21T01:14:29.361Z,5.60
2019-02-21T01:15:33.442Z,5.60
2019-02-21T01:16:40.586Z,5.50
2019-02-21T01:17:51.895Z,5.50
2019-02-21T01:18:55.948Z,5.60
2019-02-21T01:19:59.970Z,5.60
2019-02-21T01:21:24.147Z,5.60
2019-02-21T01:22:32.166Z,5.60
2019-02-21T01:23:36.260Z,5.60
2019-02-21T01:24:44.781Z,5.60
2019-02-21T01:25:51.809Z,5.60
2019-02-21T01:27:03.362Z,5.60
2019-02-21T01:28:07.644Z,5.60
2019-02-21T01:29:14.936Z,5.70
2019-02-21T01:30:30.748Z,5.70
2019-02-21T01:31:34.716Z,5.60
2019-02-21T01:32:41.077Z,5.60
2019-02-21T01:33:46.265Z,5.60
2019-02-21T01:34:54.599Z,5.70
2019-02-21T01:36:00.570Z,5.70
2019-02-21T01:37:05.124Z,5.70
2019-02-21T01:38:12.645Z,5.70
2019-02-21T01:39:21.624Z,5.70
2019-02-21T01:40:26.916Z,5.70
2019-02-21T01:41:32.596Z,5.70
2019-02-21T01:42:38.886Z,5.70
2019-02-21T01:43:43.982Z,5.70
2019-02-21T01:44:51.864Z,5.70
2019-02-21T01:45:55.766Z,5.70
2019-02-21T01:47:11.939Z,5.70
2019-02-21T01:48:10.284Z,5.70
2019-02-21T01:49:14.323Z,5.70
2019-02-21T01:50:19.114Z,5.70
2019-02-21T01:51:27.009Z,5.70
2019-02-21T01:52:42.460Z,5.70
2019-02-21T01:53:50.769Z,5.70
2019-02-21T01:55:01.274Z,5.70
2019-02-21T01:56:16.376Z,5.70
2019-02-21T01:57:21.126Z,5.70
2019-02-21T01:58:36.314Z,5.80
2019-02-21T01:59:41.737Z,5.70
2019-02-21T02:00:49.345Z,5.70
2019-02-21T02:01:54.770Z,5.70
2019-02-21T02:03:03.992Z,5.70
2019-02-21T02:04:14.926Z,5.70
2019-02-21T02:05:20.336Z,5.70
2019-02-21T02:06:33.207Z,5.70
2019-02-21T02:07:37.286Z,5.70
2019-02-21T02:08:45.320Z,5.70
2019-02-21T02:09:57.118Z,5.70
2019-02-21T02:11:05.887Z,5.70
2019-02-21T02:12:11.637Z,5.70
2019-02-21T02:13:24.041Z,5.70
2019-02-21T02:14:23.564Z,5.70
2019-02-21T02:15:29.264Z,5.70
2019-02-21T02:16:34.339Z,5.70
2019-02-21T02:17:42.260Z,5.70
2019-02-21T02:18:46.808Z,5.70
2019-02-21T02:19:55.634Z,5.70
2019-02-21T02:21:14.712Z,5.70
2019-02-21T02:22:20.148Z,5.70
2019-02-21T02:23:26.912Z,5.70
2019-02-21T02:24:35.208Z,5.70
2019-02-21T02:25:45.504Z,5.70
2019-02-21T02:26:51.914Z,5.70
2019-02-21T02:27:59.451Z,5.70
2019-02-21T02:29:03.558Z,5.70
2019-02-21T02:30:14.445Z,5.70
2019-02-21T02:31:23.221Z,5.80
2019-02-21T02:32:26.442Z,5.70
2019-02-21T02:33:54.918Z,5.70
2019-02-21T02:34:39.973Z,5.80
2019-02-21T02:35:45.591Z,5.80
2019-02-21T02:36:55.163Z,5.80
2019-02-21T02:38:00.579Z,5.80
2019-02-21T02:39:06.032Z,5.80
2019-02-21T02:40:19.231Z,5.80
2019-02-21T02:41:26.224Z,5.80
2019-02-21T02:42:39.713Z,5.80
2019-02-21T02:43:45.643Z,5.80
2019-02-21T02:44:51.560Z,5.90
2019-02-21T02:45:57.527Z,5.90
2019-02-21T02:47:01.655Z,5.90
2019-02-21T02:48:06.151Z,5.90
2019-02-21T02:49:16.507Z,5.90
2019-02-21T02:50:22.663Z,5.90
2019-02-21T02:51:28.313Z,5.90
2019-02-21T02:52:32.744Z,5.90
2019-02-21T02:53:39.074Z,5.90
2019-02-21T02:54:45.676Z,6.00
2019-02-21T02:55:51.742Z,6.00
2019-02-21T02:57:04.640Z,6.00
2019-02-21T02:58:10.575Z,6.00
2019-02-21T02:59:16.333Z,6.00
2019-02-21T03:00:23.678Z,6.00
2019-02-21T03:01:34.620Z,6.00
2019-02-21T03:02:38.478Z,6.00
2019-02-21T03:03:57.018Z,6.00
2019-02-21T03:04:56.575Z,6.00
2019-02-21T03:06:04.272Z,6.00
2019-02-21T03:07:12.864Z,5.90
2019-02-21T03:08:17.148Z,5.90
2019-02-21T03:09:22.885Z,5.90
2019-02-21T03:10:29.207Z,5.90
2019-02-21T03:11:40.342Z,5.90
2019-02-21T03:12:48.071Z,5.90
2019-02-21T03:13:52.197Z,5.90
2019-02-21T03:14:59.449Z,5.90
2019-02-21T03:16:05.036Z,6.00
2019-02-21T03:17:09.737Z,5.90
2019-02-21T03:18:23.221Z,6.00
2019-02-21T03:19:28.317Z,6.00
2019-02-21T03:20:32.526Z,5.90
2019-02-21T03:21:41.030Z,6.00
2019-02-21T03:22:45.616Z,6.00
2019-02-21T03:23:50.835Z,6.00
2019-02-21T03:25:02.385Z,6.00
2019-02-21T03:26:10.447Z,6.00
2019-02-21T03:27:17.314Z,6.00
2019-02-21T03:28:29.818Z,6.00
2019-02-21T03:29:35.051Z,6.00
2019-02-21T03:30:44.349Z,6.00
2019-02-21T03:31:54.813Z,6.00
2019-02-21T03:32:57.600Z,6.00
2019-02-21T03:34:13.594Z,6.00
2019-02-21T03:35:22.259Z,6.00
2019-02-21T03:36:28.037Z,6.00
2019-02-21T03:37:32.300Z,6.00
2019-02-21T03:38:37.618Z,6.10
2019-02-21T03:39:43.416Z,6.10
2019-02-21T03:40:56.242Z,6.10
2019-02-21T03:42:01.925Z,6.10
2019-02-21T03:43:14.875Z,6.10
2019-02-21T03:44:14.283Z,6.10
2019-02-21T03:45:22.009Z,6.10
2019-02-21T03:46:29.164Z,6.10
2019-02-21T03:47:33.668Z,6.20
2019-02-21T03:48:43.849Z,6.20
2019-02-21T03:49:45.691Z,6.20
2019-02-21T03:50:51.697Z,6.20
2019-02-21T03:51:58.496Z,6.20
2019-02-21T03:53:10.165Z,6.20
2019-02-21T03:54:17.235Z,6.20
2019-02-21T03:55:23.297Z,6.20
2019-02-21T03:56:30.673Z,6.20
2019-02-21T03:57:38.045Z,6.20
2019-02-21T03:58:45.248Z,6.20
2019-02-21T03:59:51.455Z,6.20
2019-02-21T04:00:58.261Z,6.20
2019-02-21T04:02:05.641Z,6.20
2019-02-21T04:03:12.873Z,6.20
2019-02-21T04:04:17.000Z,6.20
2019-02-21T04:05:22.970Z,6.20
2019-02-21T04:06:31.536Z,6.20
2019-02-21T04:07:37.663Z,6.20
2019-02-21T04:08:44.760Z,6.30
2019-02-21T04:09:52.435Z,6.30
2019-02-21T04:10:59.323Z,6.30
2019-02-21T04:12:14.284Z,6.30
2019-02-21T04:13:20.616Z,6.30
2019-02-21T04:14:24.808Z,6.30
2019-02-21T04:15:32.815Z,6.30
2019-02-21T04:16:37.327Z,6.30
2019-02-21T04:17:42.536Z,6.40
2019-02-21T04:18:50.969Z,6.40
2019-02-21T04:19:56.415Z,6.40
2019-02-21T04:21:01.648Z,6.40
2019-02-21T04:22:12.759Z,6.40
2019-02-21T04:23:18.415Z,6.40
2019-02-21T04:24:23.315Z,6.30
2019-02-21T04:25:32.200Z,6.40
2019-02-21T04:26:36.709Z,6.40
2019-02-21T04:27:40.723Z,6.40
2019-02-21T04:28:49.193Z,6.40
2019-02-21T04:29:53.209Z,6.40
2019-02-21T04:30:58.337Z,6.40
2019-02-21T04:32:16.606Z,6.40
2019-02-21T04:33:15.971Z,6.40
2019-02-21T04:34:20.341Z,6.40
2019-02-21T04:35:34.991Z,6.30
2019-02-21T04:36:42.592Z,6.40
2019-02-21T04:37:53.413Z,6.40
2019-02-21T04:39:03.433Z,6.40
2019-02-21T04:40:08.996Z,6.40
2019-02-21T04:41:24.822Z,6.40
2019-02-21T04:42:29.875Z,6.40
2019-02-21T04:43:38.444Z,6.40
2019-02-21T04:44:50.837Z,6.40
2019-02-21T04:45:51.359Z,6.40
2019-02-21T04:48:23.444Z,6.40
2019-02-21T04:49:29.035Z,6.40
2019-02-21T04:50:41.341Z,6.40
2019-02-21T04:51:47.077Z,6.40
2019-02-21T04:52:54.801Z,6.40
2019-02-21T04:54:01.899Z,6.40
2019-02-21T04:55:07.711Z,6.40
2019-02-21T04:56:16.392Z,6.40
2019-02-21T04:57:27.867Z,6.40
2019-02-21T04:58:35.051Z,6.40
2019-02-21T04:59:40.630Z,6.40
2019-02-21T05:00:49.697Z,6.40
2019-02-21T05:01:55.745Z,6.40
2019-02-21T05:03:04.560Z,6.40
2019-02-21T05:04:14.228Z,6.40
2019-02-21T05:05:21.325Z,6.40
2019-02-21T05:06:28.358Z,6.40
2019-02-21T05:07:36.059Z,6.40
2019-02-21T05:08:46.318Z,6.40
2019-02-21T05:10:03.742Z,6.40
2019-02-21T05:11:09.260Z,6.40
2019-02-21T05:12:19.499Z,6.40
2019-02-21T05:13:23.817Z,6.40
2019-02-21T05:14:28.037Z,6.30
2019-02-21T05:15:33.284Z,6.30
2019-02-21T05:16:37.298Z,6.30
2019-02-21T05:17:41.345Z,6.30
2019-02-21T05:18:46.031Z,6.40
2019-02-21T05:19:57.334Z,6.40
2019-02-21T05:20:58.122Z,6.30
2019-02-21T05:22:06.729Z,6.30
2019-02-21T05:23:10.833Z,6.30
2019-02-21T05:24:17.432Z,6.30
2019-02-21T05:25:22.633Z,6.30
2019-02-21T05:26:28.715Z,6.30
2019-02-21T05:27:34.083Z,6.30
2019-02-21T05:28:41.402Z,6.30
2019-02-21T05:29:46.449Z,6.30
2019-02-21T05:30:52.059Z,6.30
2019-02-21T05:31:59.812Z,6.30
2019-02-21T05:33:11.183Z,6.30
2019-02-21T05:34:35.397Z,6.30
2019-02-21T05:35:49.029Z,6.30
2019-02-21T05:37:01.013Z,6.30
2019-02-21T05:38:19.175Z,6.30
2019-02-21T05:39:36.888Z,6.30
2019-02-21T05:40:43.269Z,6.30
2019-02-21T05:42:00.840Z,6.30
2019-02-21T05:43:23.031Z,6.30
2019-02-21T05:44:33.544Z,6.40
2019-02-21T05:45:46.817Z,6.40
2019-02-21T05:47:04.206Z,6.40
2019-02-21T05:48:14.298Z,6.40
2019-02-21T05:49:23.979Z,6.40
2019-02-21T05:50:32.636Z,6.40
2019-02-21T05:51:38.265Z,6.40
2019-02-21T05:53:00.327Z,6.40
2019-02-21T05:54:05.939Z,6.40
2019-02-21T05:55:14.203Z,6.40
2019-02-21T05:56:20.157Z,6.50
2019-02-21T05:57:33.124Z,6.50
2019-02-21T05:58:43.315Z,6.50
2019-02-21T05:59:58.106Z,6.50
2019-02-21T06:01:21.172Z,6.50
2019-02-21T06:02:52.512Z,6.50
2019-02-21T06:03:49.312Z,6.50
2019-02-21T06:05:19.284Z,6.50
2019-02-21T06:06:24.568Z,6.50
2019-02-21T06:07:31.197Z,6.50
2019-02-21T06:08:37.059Z,6.50
2019-02-21T06:09:50.581Z,6.50
2019-02-21T06:11:00.011Z,6.50
2019-02-21T06:12:14.562Z,6.50
2019-02-21T06:13:23.390Z,6.50
2019-02-21T06:14:39.967Z,6.50
2019-02-21T06:15:48.340Z,6.50
2019-02-21T06:16:55.777Z,6.50
2019-02-21T06:18:21.254Z,6.50
2019-02-21T06:19:27.918Z,6.50
2019-02-21T06:20:49.868Z,6.50
2019-02-21T06:22:10.575Z,6.50
2019-02-21T06:23:16.683Z,6.50
2019-02-21T06:24:22.526Z,6.50
2019-02-21T06:25:31.654Z,6.50
2019-02-21T06:26:40.051Z,6.50
2019-02-21T06:27:51.509Z,6.50
2019-02-21T06:29:03.933Z,6.50
2019-02-21T06:30:19.160Z,6.50
2019-02-21T06:31:23.292Z,6.50
2019-02-21T06:32:30.595Z,6.50
2019-02-21T06:33:34.877Z,6.50
2019-02-21T06:34:39.401Z,6.50
2019-02-21T06:35:43.419Z,6.50
2019-02-21T06:36:49.385Z,6.50
2019-02-21T06:37:53.413Z,6.50
2019-02-21T06:39:00.467Z,6.50
2019-02-21T06:40:13.171Z,6.50
2019-02-21T06:41:13.566Z,6.50
2019-02-21T06:42:17.635Z,6.50
2019-02-21T06:43:26.533Z,6.50
2019-02-21T06:44:43.995Z,6.50
2019-02-21T06:45:50.705Z,6.60
2019-02-21T06:46:55.447Z,6.50
2019-02-21T06:48:04.957Z,6.50
2019-02-21T06:49:11.437Z,6.50
2019-02-21T06:50:26.868Z,6.50
2019-02-21T06:51:30.225Z,6.50
2019-02-21T06:52:36.776Z,6.50
2019-02-21T06:53:42.870Z,6.50
2019-02-21T06:54:48.240Z,6.50
2019-02-21T06:55:53.011Z,6.50
2019-02-21T06:57:00.222Z,6.50
2019-02-21T06:58:05.982Z,6.50
2019-02-21T06:59:11.623Z,6.60
2019-02-21T07:00:15.880Z,6.50
2019-02-21T07:01:28.916Z,6.60
2019-02-21T07:02:30.061Z,6.50
2019-02-21T07:03:34.915Z,6.50
2019-02-21T07:04:40.321Z,6.50
2019-02-21T07:05:47.465Z,6.60
2019-02-21T07:06:51.568Z,6.60
2019-02-21T07:08:08.767Z,6.60
2019-02-21T07:09:13.377Z,6.60
2019-02-21T07:10:20.490Z,6.60
2019-02-21T07:11:26.065Z,6.60
2019-02-21T07:12:31.981Z,6.60
2019-02-21T07:15:05.889Z,6.60
2019-02-21T07:16:13.162Z,6.60
2019-02-21T07:17:20.339Z,6.60
2019-02-21T07:18:28.661Z,6.60
2019-02-21T07:19:34.973Z,6.60
2019-02-21T07:20:41.086Z,6.60
2019-02-21T07:21:47.546Z,6.60
2019-02-21T07:22:53.253Z,6.60
2019-02-21T07:24:02.296Z,6.60
2019-02-21T07:25:13.055Z,6.60
2019-02-21T07:26:19.554Z,6.60
2019-02-21T07:27:25.111Z,6.60
2019-02-21T07:28:31.783Z,6.70
2019-02-21T07:29:42.430Z,6.70
2019-02-21T07:30:52.481Z,6.70
2019-02-21T07:31:56.536Z,6.70
2019-02-21T07:33:03.450Z,6.70
2019-02-21T07:34:13.906Z,6.70
2019-02-21T07:35:23.115Z,6.70
2019-02-21T07:36:31.568Z,6.70
2019-02-21T07:37:58.608Z,6.70
2019-02-21T07:39:16.903Z,6.70
2019-02-21T07:40:19.940Z,6.70
2019-02-21T07:41:23.285Z,6.80
2019-02-21T07:42:32.109Z,6.70
2019-02-21T07:43:37.482Z,6.80
2019-02-21T07:44:45.465Z,6.80
2019-02-21T07:45:57.482Z,6.80
2019-02-21T07:48:31.079Z,6.70
2019-02-21T07:49:36.173Z,6.70
2019-02-21T07:50:41.188Z,6.70
2019-02-21T07:51:48.480Z,6.70
2019-02-21T07:53:02.419Z,6.70
2019-02-21T07:54:04.438Z,6.70
2019-02-21T07:55:11.889Z,6.70
2019-02-21T07:56:20.066Z,6.80
2019-02-21T07:57:26.813Z,6.80
2019-02-21T08:02:53.645Z,6.90
2019-02-21T08:08:32.450Z,6.90
2019-02-21T08:09:45.707Z,6.90
2019-02-21T08:14:35.298Z,6.90
2019-02-21T08:24:06.715Z,7.10
2019-02-21T08:25:19.160Z,7.10
2019-02-21T08:26:25.375Z,7.10
2019-02-21T08:27:31.774Z,7.10
2019-02-21T08:28:39.468Z,7.10
2019-02-21T08:29:49.794Z,7.10
2019-02-21T08:30:53.482Z,7.10
2019-02-21T08:32:00.552Z,7.20
2019-02-21T08:33:08.722Z,7.10
2019-02-21T08:34:17.824Z,7.20
2019-02-21T08:35:25.500Z,5.80
2019-02-21T08:36:34.404Z,7.20
2019-02-21T08:37:38.709Z,7.30
2019-02-21T08:38:48.027Z,7.30
2019-02-21T08:39:56.970Z,7.30
2019-02-21T08:41:04.665Z,7.30
2019-02-21T08:42:09.444Z,7.30
2019-02-21T08:43:19.948Z,7.30
2019-02-21T08:44:24.183Z,7.30
2019-02-21T08:45:28.937Z,7.30
2019-02-21T08:46:37.237Z,7.40
2019-02-21T08:47:44.885Z,7.40
2019-02-21T08:48:51.145Z,7.40
2019-02-21T08:49:55.302Z,7.40
2019-02-21T08:51:06.376Z,7.40
2019-02-21T08:52:20.346Z,7.40
2019-02-21T08:53:30.863Z,7.40
2019-02-21T08:54:37.080Z,7.40
2019-02-21T08:55:48.571Z,7.30
2019-02-21T08:57:00.394Z,7.40
2019-02-21T08:58:11.452Z,7.40
2019-02-21T08:59:18.012Z,7.40
2019-02-21T09:00:24.191Z,7.40
2019-02-21T09:01:31.324Z,7.40
2019-02-21T09:02:36.038Z,7.30
2019-02-21T09:03:41.988Z,7.40
2019-02-21T09:04:46.311Z,7.40
2019-02-21T09:05:50.847Z,7.30
2019-02-21T09:06:56.690Z,7.30
2019-02-21T09:08:04.376Z,7.30
2019-02-21T09:09:15.048Z,7.30
2019-02-21T09:10:18.293Z,7.30
2019-02-21T09:11:25.800Z,7.30
2019-02-21T09:12:33.876Z,7.40
2019-02-21T09:13:41.868Z,7.30
2019-02-21T09:14:55.107Z,7.40
2019-02-21T09:16:02.528Z,7.40
2019-02-21T09:17:14.222Z,7.40
2019-02-21T09:18:23.630Z,7.40
2019-02-21T09:19:32.067Z,7.40
2019-02-21T09:20:36.497Z,7.40
2019-02-21T09:21:47.044Z,7.40
2019-02-21T09:22:53.692Z,7.40
2019-02-21T09:23:58.632Z,7.40
2019-02-21T09:25:05.834Z,7.40
2019-02-21T09:26:16.480Z,7.40
2019-02-21T09:27:23.047Z,7.40
2019-02-21T09:28:31.335Z,7.40
2019-02-21T09:29:35.886Z,7.40
2019-02-21T09:30:42.144Z,7.40
2019-02-21T09:31:46.976Z,7.40
2019-02-21T09:33:00.530Z,7.40
2019-02-21T09:35:34.782Z,7.50
2019-02-21T09:36:41.465Z,7.50
2019-02-21T09:37:52.240Z,7.50
2019-02-21T09:38:56.374Z,7.50
2019-02-21T09:40:02.301Z,7.50
2019-02-21T09:41:16.084Z,7.50
2019-02-21T09:42:23.014Z,7.50
2019-02-21T09:43:28.390Z,7.50
2019-02-21T09:44:42.806Z,7.50
2019-02-21T09:45:50.259Z,7.60
2019-02-21T09:47:01.763Z,7.60
2019-02-21T09:48:14.562Z,7.50
2019-02-21T09:49:25.634Z,7.60
2019-02-21T09:50:38.300Z,7.60
2019-02-21T09:51:48.136Z,7.60
2019-02-21T09:52:55.340Z,7.60
2019-02-21T09:53:59.958Z,7.50
2019-02-21T09:55:20.516Z,7.50
2019-02-21T09:56:30.747Z,7.50
2019-02-21T09:57:36.566Z,7.60
2019-02-21T09:58:41.426Z,7.60
2019-02-21T09:59:50.944Z,7.60
2019-02-21T10:00:55.642Z,7.60
2019-02-21T10:02:01.327Z,7.60
2019-02-21T10:03:06.809Z,7.60
2019-02-21T10:04:11.065Z,7.60
2019-02-21T10:05:15.598Z,7.60
2019-02-21T10:06:23.164Z,7.60
2019-02-21T10:07:29.661Z,7.60
2019-02-21T10:08:53.498Z,7.60
2019-02-21T10:09:57.726Z,7.60
2019-02-21T10:11:06.906Z,7.60
2019-02-21T10:12:18.343Z,7.60
2019-02-21T10:13:25.175Z,7.50
2019-02-21T10:14:34.979Z,7.60
2019-02-21T10:15:53.686Z,7.60
2019-02-21T10:16:52.969Z,7.60
2019-02-21T10:18:04.822Z,7.60
2019-02-21T10:19:29.598Z,7.60
2019-02-21T10:20:36.864Z,7.50
2019-02-21T10:21:44.361Z,7.60
2019-02-21T10:22:45.216Z,7.60
2019-02-21T10:23:53.218Z,7.60
2019-02-21T10:25:01.009Z,7.60
2019-02-21T10:26:07.888Z,7.60
2019-02-21T10:27:16.172Z,7.60
2019-02-21T10:29:06.430Z,7.70
2019-02-21T10:29:42.885Z,7.70
2019-02-21T10:30:50.309Z,7.70
2019-02-21T10:31:57.058Z,7.70
2019-02-21T10:33:11.449Z,7.80
2019-02-21T10:34:28.864Z,7.70
2019-02-21T10:35:35.605Z,7.70
2019-02-21T10:36:42.518Z,7.70
2019-02-21T10:37:51.127Z,7.70
2019-02-21T10:39:07.204Z,7.70
2019-02-21T10:40:18.929Z,7.70
2019-02-21T10:41:26.325Z,7.70
2019-02-21T10:42:38.200Z,7.70
2019-02-21T10:43:44.450Z,7.70
2019-02-21T10:44:54.524Z,7.70
2019-02-21T10:46:01.579Z,7.70
2019-02-21T10:47:17.266Z,7.70
2019-02-21T10:48:25.427Z,7.70
2019-02-21T10:49:40.102Z,7.80
2019-02-21T10:52:15.640Z,7.80
2019-02-21T10:53:41.107Z,7.80
2019-02-21T10:55:05.570Z,7.80
2019-02-21T10:56:13.700Z,7.80
2019-02-21T10:57:19.659Z,7.90
2019-02-21T10:58:30.880Z,7.80
2019-02-21T10:59:46.323Z,7.80
2019-02-21T11:00:47.328Z,7.90
2019-02-21T11:01:53.911Z,7.90
2019-02-21T11:03:01.433Z,7.90
2019-02-21T11:04:08.640Z,7.90
2019-02-21T11:05:16.972Z,8.00
2019-02-21T11:06:23.214Z,8.00
2019-02-21T11:07:29.278Z,8.00
2019-02-21T11:08:37.774Z,8.00
2019-02-21T11:09:45.668Z,8.00
2019-02-21T11:10:51.605Z,8.10
2019-02-21T11:11:58.372Z,8.10
2019-02-21T11:14:27.484Z,8.10
2019-02-21T11:15:36.588Z,8.20
2019-02-21T11:16:43.132Z,8.20
2019-02-21T11:17:49.402Z,8.20
2019-02-21T11:18:57.968Z,8.20
2019-02-21T11:20:06.649Z,8.20
2019-02-21T11:21:17.241Z,8.20
2019-02-21T11:22:20.568Z,8.20
2019-02-21T11:23:27.436Z,8.20
2019-02-21T11:24:36.406Z,8.20
2019-02-21T11:25:45.724Z,8.20
2019-02-21T11:26:49.762Z,8.20
2019-02-21T11:28:00.183Z,8.20
2019-02-21T11:29:03.626Z,8.20
2019-02-21T11:30:13.552Z,8.20
2019-02-21T11:31:18.692Z,8.20
2019-02-21T11:32:24.156Z,8.10
2019-02-21T11:33:33.908Z,8.10
2019-02-21T11:34:40.953Z,8.10
2019-02-21T11:35:47.068Z,8.10
2019-02-21T11:36:54.793Z,8.00
2019-02-21T11:38:00.827Z,8.10
2019-02-21T11:39:13.612Z,8.10
2019-02-21T11:40:21.002Z,8.10
2019-02-21T11:41:38.377Z,8.10
2019-02-21T11:42:53.566Z,8.10
2019-02-21T11:43:48.629Z,8.10
2019-02-21T11:45:00.822Z,8.10
2019-02-21T11:46:09.418Z,8.10
2019-02-21T11:47:15.378Z,8.10
2019-02-21T11:48:19.476Z,8.10
2019-02-21T11:49:26.102Z,8.10
2019-02-21T11:50:32.823Z,8.10
2019-02-21T11:51:37.644Z,8.00
2019-02-21T11:52:45.127Z,8.00
2019-02-21T11:53:50.845Z,8.00
2019-02-21T11:54:58.217Z,8.00
2019-02-21T11:56:05.635Z,8.00
2019-02-21T11:57:13.229Z,8.00
2019-02-21T11:58:19.614Z,8.00
2019-02-21T11:59:26.974Z,8.00
2019-02-21T12:00:37.429Z,8.00
2019-02-21T12:01:48.684Z,8.00
2019-02-21T12:03:00.689Z,8.00
2019-02-21T12:04:15.518Z,7.90
2019-02-21T12:05:30.432Z,7.90
2019-02-21T12:06:27.549Z,7.90
2019-02-21T12:07:35.419Z,7.90
2019-02-21T12:08:45.347Z,7.90
2019-02-21T12:09:50.998Z,7.90
2019-02-21T12:10:59.040Z,7.80
2019-02-21T12:12:05.283Z,7.80
2019-02-21T12:13:10.084Z,7.80
2019-02-21T12:14:18.178Z,7.80
2019-02-21T12:15:24.983Z,7.80
2019-02-21T12:16:31.474Z,7.90
2019-02-21T12:17:42.305Z,7.90
2019-02-21T12:18:46.920Z,7.90
2019-02-21T12:19:53.310Z,7.90
2019-02-21T12:21:02.372Z,7.90
2019-02-21T12:22:15.199Z,8.00
2019-02-21T12:23:20.966Z,7.90
2019-02-21T12:24:26.351Z,7.90
2019-02-21T12:25:34.507Z,8.00
2019-02-21T12:26:43.581Z,8.00
2019-02-21T12:27:47.836Z,8.00
2019-02-21T12:28:58.410Z,8.00
2019-02-21T12:30:17.007Z,8.00
2019-02-21T12:31:18.752Z,8.00
2019-02-21T12:32:27.092Z,8.00
2019-02-21T12:33:37.750Z,8.00
2019-02-21T12:34:43.507Z,8.00
2019-02-21T12:35:52.016Z,8.10
2019-02-21T12:37:04.147Z,8.00
2019-02-21T12:38:08.766Z,8.00
2019-02-21T12:39:15.669Z,8.00
2019-02-21T12:40:23.569Z,8.00
2019-02-21T12:41:33.828Z,8.00
2019-02-21T12:42:39.184Z,8.00
2019-02-21T12:43:44.929Z,8.00
2019-02-21T12:44:51.763Z,7.90
2019-02-21T12:46:01.965Z,7.90
2019-02-21T12:47:09.317Z,7.90
2019-02-21T12:48:19.295Z,8.00
2019-02-21T12:49:32.578Z,7.90
2019-02-21T12:50:44.724Z,7.90
2019-02-21T12:51:49.678Z,8.00
2019-02-21T12:52:56.487Z,7.90
2019-02-21T12:54:04.913Z,8.00
2019-02-21T12:55:12.407Z,7.90
2019-02-21T12:56:19.063Z,8.00
2019-02-21T12:57:27.603Z,8.00
2019-02-21T12:58:34.362Z,8.00
2019-02-21T12:59:40.262Z,8.00
2019-02-21T13:00:47.621Z,8.00
2019-02-21T13:01:53.429Z,8.00
2019-02-21T13:03:00.062Z,8.00
2019-02-21T13:04:04.597Z,8.00
2019-02-21T13:05:09.121Z,8.00
2019-02-21T13:06:23.404Z,8.00
2019-02-21T13:07:32.621Z,7.90
2019-02-21T13:08:39.585Z,8.00
2019-02-21T13:09:44.993Z,7.90
2019-02-21T13:10:49.581Z,7.90
2019-02-21T13:11:53.850Z,7.90
2019-02-21T13:13:01.332Z,8.00
2019-02-21T13:14:07.619Z,8.00
2019-02-21T13:15:13.453Z,7.90
2019-02-21T13:16:17.451Z,7.90
2019-02-21T13:17:21.481Z,7.90
2019-02-21T13:18:26.791Z,8.00
2019-02-21T13:19:34.602Z,7.90
2019-02-21T13:20:37.477Z,7.90
2019-02-21T13:21:41.428Z,7.90
2019-02-21T13:22:46.693Z,7.90
2019-02-21T13:23:52.405Z,7.90
2019-02-21T13:24:57.741Z,7.90
2019-02-21T13:26:03.369Z,8.00
2019-02-21T13:27:09.666Z,7.90
2019-02-21T13:28:16.171Z,8.00
2019-02-21T13:29:21.979Z,8.00
2019-02-21T13:30:26.195Z,8.00
2019-02-21T13:31:32.144Z,7.90
2019-02-21T13:32:44.209Z,7.90
2019-02-21T13:33:51.184Z,7.90
2019-02-21T13:34:58.979Z,7.90
2019-02-21T13:36:04.409Z,7.90
2019-02-21T13:37:28.266Z,7.90
2019-02-21T13:38:36.667Z,7.90
2019-02-21T13:39:49.543Z,7.80
2019-02-21T13:40:59.047Z,7.80
2019-02-21T13:42:10.192Z,7.80
2019-02-21T13:43:16.541Z,7.70
2019-02-21T13:44:22.647Z,7.70
2019-02-21T13:45:27.683Z,7.70
2019-02-21T13:46:41.073Z,7.70
2019-02-21T13:47:46.033Z,7.70
2019-02-21T13:48:56.221Z,7.70
2019-02-21T13:50:07.643Z,7.60
2019-02-21T13:51:13.693Z,7.60
2019-02-21T13:52:18.146Z,7.60
2019-02-21T13:53:28.943Z,7.60
2019-02-21T13:54:31.975Z,7.60
2019-02-21T13:55:36.361Z,7.60
2019-02-21T13:56:43.367Z,7.60
2019-02-21T13:57:50.623Z,7.60
2019-02-21T13:58:55.486Z,7.60
2019-02-21T14:00:01.362Z,7.60
2019-02-21T14:01:06.634Z,7.60
2019-02-21T14:02:15.650Z,7.60
2019-02-21T14:03:19.862Z,7.60
2019-02-21T14:04:26.570Z,7.60
2019-02-21T14:05:39.129Z,7.60
2019-02-21T14:06:44.130Z,7.60
2019-02-21T14:07:55.153Z,7.60
2019-02-21T14:09:04.683Z,7.70
2019-02-21T14:10:18.916Z,7.70
2019-02-21T14:11:26.469Z,7.60
2019-02-21T14:12:32.313Z,7.60
2019-02-21T14:13:42.153Z,7.60
2019-02-21T14:14:51.319Z,7.60
2019-02-21T14:15:54.774Z,7.60
2019-02-21T14:17:14.838Z,7.60
2019-02-21T14:18:18.111Z,7.60
2019-02-21T14:19:22.141Z,7.60
2019-02-21T14:20:30.882Z,7.60
2019-02-21T14:21:38.110Z,7.60
2019-02-21T14:22:45.472Z,7.60
2019-02-21T14:23:52.557Z,7.60
2019-02-21T14:24:57.969Z,7.50
2019-02-21T14:26:06.813Z,7.50
2019-02-21T14:27:13.315Z,7.50
2019-02-21T14:28:18.155Z,7.50
2019-02-21T14:29:25.973Z,7.50
2019-02-21T14:30:36.964Z,7.50
2019-02-21T14:31:42.688Z,7.50
2019-02-21T14:33:17.314Z,7.50
2019-02-21T14:34:05.961Z,7.50
2019-02-21T14:35:15.597Z,7.50
2019-02-21T14:36:23.209Z,7.50
2019-02-21T14:37:40.903Z,7.50
2019-02-21T14:38:45.998Z,7.50
2019-02-21T14:39:52.486Z,7.50
2019-02-21T14:41:03.672Z,7.50
2019-02-21T14:42:10.317Z,7.40
2019-02-21T14:43:19.959Z,7.50
2019-02-21T14:44:25.916Z,7.50
2019-02-21T14:45:31.687Z,7.50
2019-02-21T14:46:39.897Z,7.50
2019-02-21T14:47:51.342Z,7.50
2019-02-21T14:48:58.407Z,7.50
2019-02-21T14:50:06.795Z,7.50
2019-02-21T14:51:13.825Z,7.50
2019-02-21T14:52:43.650Z,7.50
2019-02-21T14:53:50.887Z,7.50
2019-02-21T14:54:56.878Z,7.50
2019-02-21T14:56:10.397Z,7.50
2019-02-21T14:57:15.432Z,7.40
2019-02-21T14:58:30.808Z,7.50
2019-02-21T14:59:36.205Z,7.50
2019-02-21T15:00:44.968Z,7.40
2019-02-21T15:01:54.127Z,7.50
2019-02-21T15:03:01.131Z,7.50
2019-02-21T15:04:07.157Z,7.50
2019-02-21T15:05:16.739Z,7.40
2019-02-21T15:06:26.977Z,7.40
2019-02-21T15:07:32.614Z,7.40
2019-02-21T15:08:38.064Z,7.40
2019-02-21T15:09:47.120Z,7.30
2019-02-21T15:10:59.343Z,7.30
2019-02-21T15:12:07.778Z,7.30
2019-02-21T15:13:19.857Z,7.30
2019-02-21T15:14:27.008Z,7.30
2019-02-21T15:15:34.899Z,7.30
2019-02-21T15:16:42.591Z,7.20
2019-02-21T15:17:47.077Z,7.20
2019-02-21T15:18:56.898Z,7.20
2019-02-21T15:20:01.622Z,7.20
2019-02-21T15:21:11.279Z,7.20
2019-02-21T15:22:18.437Z,7.20
2019-02-21T15:23:24.217Z,7.20
2019-02-21T15:24:33.227Z,7.20
2019-02-21T15:25:44.301Z,7.20
2019-02-21T15:26:49.725Z,7.20
2019-02-21T15:28:00.557Z,7.20
2019-02-21T15:29:06.022Z,7.20
2019-02-21T15:30:25.279Z,7.20
2019-02-21T15:31:30.665Z,7.20
2019-02-21T15:32:35.900Z,7.20
2019-02-21T15:33:40.047Z,7.20
2019-02-21T15:34:47.220Z,7.20
2019-02-21T15:35:52.668Z,7.20